createdAt,value
2019-01-12T00:01:29.776Z,77131.08
2019-01-12T00:03:56.173Z,77134.08
2019-01-12T00:06:23.359Z,77134.08
2019-01-12T00:08:49.276Z,77146.09
2019-01-12T00:11:15.233Z,77139.08
2019-01-12T00:13:41.136Z,77140.08
2019-01-12T00:16:07.392Z,77137.08
2019-01-12T00:18:33.286Z,77137.08
2019-01-12T00:20:59.193Z,77141.08
2019-01-12T00:23:25.514Z,77138.08
2019-01-12T00:25:51.768Z,77137.08
2019-01-12T00:28:17.661Z,77138.08
2019-01-12T00:30:43.568Z,77143.08
2019-01-12T00:33:09.464Z,77149.09
2019-01-12T00:35:35.357Z,77156.09
2019-01-12T00:38:01.628Z,77163.10
2019-01-12T00:40:27.522Z,77156.09
2019-01-12T00:42:53.406Z,77159.09
2019-01-12T00:45:19.308Z,77145.09
2019-01-12T00:47:45.234Z,77158.09
2019-01-12T00:50:12.427Z,77153.09
2019-01-12T00:52:38.338Z,77145.09
2019-01-12T00:55:04.747Z,77142.08
2019-01-12T00:57:30.636Z,77156.09
2019-01-12T00:59:56.546Z,77156.09
2019-01-12T01:02:24.728Z,77151.09
2019-01-12T01:04:50.686Z,77155.09
2019-01-12T01:07:16.627Z,77161.09
2019-01-12T01:09:42.572Z,77158.09
2019-01-12T01:12:08.466Z,77166.11
2019-01-12T01:14:34.407Z,77165.10
2019-01-12T01:17:00.310Z,77162.10
2019-01-12T01:19:26.247Z,77175.11
2019-01-12T01:21:54.122Z,77178.11
2019-01-12T01:24:19.951Z,77187.13
2019-01-12T01:26:45.888Z,77187.13
2019-01-12T01:29:12.166Z,77195.13
2019-01-12T01:31:38.439Z,77195.13
2019-01-12T01:34:04.333Z,77189.13
2019-01-12T01:36:30.283Z,77194.13
2019-01-12T01:38:56.554Z,77202.14
2019-01-12T01:41:24.998Z,77207.14
2019-01-12T01:43:50.905Z,77207.14
2019-01-12T01:46:16.830Z,77211.14
2019-01-12T01:48:42.744Z,77208.14
2019-01-12T01:51:08.642Z,77208.14
2019-01-12T01:53:34.576Z,77202.14
2019-01-12T01:56:00.476Z,77210.14
2019-01-12T01:58:26.422Z,77211.14
2019-01-12T02:00:52.641Z,77218.16
2019-01-12T02:03:18.557Z,77219.16
2019-01-12T02:05:44.598Z,77205.14
2019-01-12T02:08:10.900Z,77209.14
2019-01-12T02:10:39.827Z,77218.16
2019-01-12T02:13:05.767Z,77211.14
2019-01-12T02:15:31.666Z,77211.14
2019-01-12T02:17:57.570Z,77213.15
2019-01-12T02:20:23.481Z,77214.15
2019-01-12T02:22:49.397Z,77219.16
2019-01-12T02:25:15.303Z,77217.16
2019-01-12T02:27:41.192Z,77221.16
2019-01-12T02:30:09.085Z,77224.16
2019-01-12T02:32:37.797Z,77227.16
2019-01-12T02:35:06.751Z,77210.14
2019-01-12T02:37:33.156Z,77220.16
2019-01-12T02:39:59.092Z,77219.16
2019-01-12T02:42:24.991Z,77216.15
2019-01-12T02:44:50.945Z,77216.15
2019-01-12T02:47:16.852Z,77205.14
2019-01-12T02:49:42.752Z,77214.15
2019-01-12T02:52:08.652Z,77222.16
2019-01-12T02:54:34.560Z,77220.16
2019-01-12T02:57:00.458Z,77221.16
2019-01-12T02:59:26.369Z,77220.16
2019-01-12T03:01:54.292Z,77207.14
2019-01-12T03:04:20.207Z,77205.14
2019-01-12T03:06:46.164Z,77211.14
2019-01-12T03:09:12.413Z,77203.14
2019-01-12T03:11:38.320Z,77216.15
2019-01-12T03:14:04.252Z,77215.15
2019-01-12T03:16:32.941Z,77208.14
2019-01-12T03:18:58.883Z,77202.14
2019-01-12T03:21:24.785Z,77206.14
2019-01-12T03:23:53.667Z,77217.16
2019-01-12T03:26:25.344Z,77217.16
2019-01-12T03:28:51.262Z,77222.16
2019-01-12T03:31:17.160Z,77217.16
2019-01-12T03:33:43.101Z,77212.15
2019-01-12T03:36:09.015Z,77206.14
2019-01-12T03:38:37.728Z,77215.15
2019-01-12T03:41:03.632Z,77209.14
2019-01-12T03:43:29.583Z,77223.16
2019-01-12T03:45:55.482Z,77221.16
2019-01-12T03:48:21.389Z,77205.14
2019-01-12T03:50:50.153Z,77205.14
2019-01-12T03:53:16.090Z,77195.13
2019-01-12T03:55:41.982Z,77180.12
2019-01-12T03:58:07.889Z,77188.13
2019-01-12T04:00:33.839Z,77181.12
2019-01-12T04:03:00.112Z,77191.13
2019-01-12T04:05:26.121Z,77188.13
2019-01-12T04:07:54.935Z,77200.14
2019-01-12T04:10:20.849Z,77190.13
2019-01-12T04:12:46.754Z,77183.12
2019-01-12T04:15:12.717Z,77188.13
2019-01-12T04:17:42.044Z,77185.13
2019-01-12T04:20:09.251Z,77180.12
2019-01-12T04:22:38.208Z,77184.13
2019-01-12T04:25:04.449Z,77185.13
2019-01-12T04:27:31.285Z,77184.13
2019-01-12T04:29:57.225Z,77176.11
2019-01-12T04:32:23.118Z,77184.13
2019-01-12T04:34:51.835Z,77181.12
2019-01-12T04:37:20.787Z,77181.12
2019-01-12T04:39:49.953Z,77176.11
2019-01-12T04:42:19.059Z,77187.13
2019-01-12T04:44:44.965Z,77178.11
2019-01-12T04:47:12.199Z,77181.12
2019-01-12T04:49:38.104Z,77177.11
2019-01-12T04:52:04.009Z,77183.12
2019-01-12T04:54:32.966Z,77184.13
2019-01-12T04:56:58.911Z,77181.12
2019-01-12T04:59:24.810Z,77183.12
2019-01-12T05:01:54.111Z,77186.13
2019-01-12T05:04:26.029Z,77189.13
2019-01-12T05:06:55.431Z,77191.13
2019-01-12T05:09:21.330Z,77192.13
2019-01-12T05:11:50.698Z,77191.13
2019-01-12T05:14:16.610Z,77183.12
2019-01-12T05:16:45.286Z,77181.12
2019-01-12T05:19:14.492Z,77181.12
2019-01-12T05:21:40.446Z,77185.13
2019-01-12T05:24:09.450Z,77179.11
2019-01-12T05:26:38.423Z,77179.11
2019-01-12T05:29:07.567Z,77183.12
2019-01-12T05:31:36.471Z,77183.12
2019-01-12T05:34:05.917Z,77181.12
2019-01-12T05:36:34.627Z,77181.12
2019-01-12T05:39:00.545Z,77174.11
2019-01-12T05:41:26.457Z,77165.10
2019-01-12T05:43:54.384Z,77171.11
2019-01-12T05:46:23.301Z,77168.11
2019-01-12T05:48:49.207Z,77168.11
2019-01-12T05:51:15.105Z,77170.11
2019-01-12T05:53:41.014Z,77171.11
2019-01-12T05:56:06.949Z,77166.11
2019-01-12T05:58:35.894Z,77163.10
2019-01-12T06:01:04.815Z,77162.10
2019-01-12T06:03:30.718Z,77162.10
2019-01-12T06:06:00.071Z,77161.09
2019-01-12T06:08:25.975Z,77167.11
2019-01-12T06:10:54.641Z,77174.11
2019-01-12T06:13:20.551Z,77166.11
2019-01-12T06:15:46.469Z,77168.11
2019-01-12T06:18:15.351Z,77160.09
2019-01-12T06:20:44.041Z,77163.10
2019-01-12T06:23:12.948Z,77168.11
2019-01-12T06:25:41.751Z,77175.11
2019-01-12T06:28:07.658Z,77173.11
2019-01-12T06:30:33.583Z,77171.11
2019-01-12T06:32:59.992Z,77175.11
2019-01-12T06:35:26.357Z,77183.12
2019-01-12T06:37:55.415Z,77174.11
2019-01-12T06:40:21.313Z,77187.13
2019-01-12T06:42:47.293Z,77177.11
2019-01-12T06:45:14.235Z,77174.11
2019-01-12T06:47:40.152Z,77176.11
2019-01-12T06:50:07.348Z,77171.11
2019-01-12T06:52:36.285Z,77168.11
2019-01-12T06:55:06.855Z,77173.11
2019-01-12T06:57:32.785Z,77172.11
2019-01-12T07:00:03.246Z,77168.11
2019-01-12T07:02:29.136Z,77169.11
2019-01-12T07:04:55.078Z,77172.11
2019-01-12T07:07:21.408Z,77170.11
2019-01-12T07:09:47.355Z,77169.11
2019-01-12T07:12:13.314Z,77172.11
2019-01-12T07:14:39.204Z,77170.11
2019-01-12T07:17:05.098Z,77173.11
2019-01-12T07:19:31.416Z,77167.11
2019-01-12T07:21:57.325Z,77170.11
2019-01-12T07:24:23.233Z,77162.10
2019-01-12T07:26:52.844Z,77159.09
2019-01-12T07:29:18.761Z,77165.10
2019-01-12T07:31:44.667Z,77159.09
2019-01-12T07:34:10.854Z,77161.09
2019-01-12T07:36:36.758Z,77164.10
2019-01-12T07:39:04.924Z,77163.10
2019-01-12T07:41:30.836Z,77158.09
2019-01-12T07:43:56.749Z,77163.10
2019-01-12T07:46:24.670Z,77163.10
2019-01-12T07:48:50.592Z,77157.09
2019-01-12T07:51:16.480Z,77161.09
2019-01-12T07:53:42.428Z,77163.10
2019-01-12T07:56:08.664Z,77157.09
2019-01-12T07:58:34.871Z,77157.09
2019-01-12T08:01:01.077Z,77159.09
2019-01-12T08:03:26.969Z,77164.10
2019-01-12T08:05:55.949Z,77169.11
2019-01-12T08:08:21.892Z,77169.11
2019-01-12T08:10:47.799Z,77160.09
2019-01-12T08:13:13.687Z,77161.09
2019-01-12T08:15:39.580Z,77156.09
2019-01-12T08:18:08.684Z,77155.09
2019-01-12T08:20:37.592Z,77144.09
2019-01-12T08:23:06.585Z,77150.09
2019-01-12T08:25:35.511Z,77148.09
2019-01-12T08:28:01.932Z,77159.09
2019-01-12T08:30:27.906Z,77152.09
2019-01-12T08:32:53.793Z,77148.09
2019-01-12T08:35:19.743Z,77153.09
2019-01-12T08:37:45.685Z,77146.09
2019-01-12T08:40:11.822Z,77141.08
2019-01-12T08:42:37.827Z,77136.08
2019-01-12T08:45:04.601Z,77133.08
2019-01-12T08:47:30.938Z,77180.12
2019-01-12T08:49:56.918Z,77156.09
2019-01-12T08:52:24.845Z,77179.11
2019-01-12T08:54:50.751Z,77154.09
2019-01-12T08:57:16.657Z,77145.09
2019-01-12T08:59:42.603Z,77130.08
2019-01-12T09:02:08.469Z,77129.07
2019-01-12T09:04:34.358Z,77123.06
2019-01-12T09:07:00.274Z,77117.06
2019-01-12T09:09:26.188Z,77115.06
2019-01-12T09:11:54.830Z,77120.06
2019-01-12T09:14:20.727Z,77112.06
2019-01-12T09:16:49.645Z,77116.06
2019-01-12T09:19:15.569Z,77116.06
2019-01-12T09:21:41.466Z,77122.06
2019-01-12T09:24:10.411Z,77114.06
2019-01-12T09:26:36.344Z,77113.06
2019-01-12T09:29:02.260Z,77112.06
2019-01-12T09:31:31.222Z,77106.05
2019-01-12T09:34:00.158Z,77105.05
2019-01-12T09:36:37.824Z,77100.05
2019-01-12T09:39:07.085Z,77099.05
2019-01-12T09:41:33.073Z,77087.03
2019-01-12T09:43:58.951Z,77091.03
2019-01-12T09:46:24.853Z,77085.03
2019-01-12T09:48:50.764Z,77081.03
2019-01-12T09:51:19.925Z,77075.02
2019-01-12T09:53:48.599Z,77072.02
2019-01-12T09:56:18.123Z,77072.02
2019-01-12T09:58:46.806Z,77069.02
2019-01-12T10:01:12.731Z,77063.02
2019-01-12T10:03:38.656Z,77057.01
2019-01-12T10:06:04.547Z,77062.02
2019-01-12T10:08:30.455Z,77056.01
2019-01-12T10:10:56.349Z,77055.01
2019-01-12T10:13:25.271Z,77044.00
2019-01-12T10:15:51.200Z,77045.00
2019-01-12T10:18:17.139Z,77045.00
2019-01-12T10:20:46.299Z,77036.99
2019-01-12T10:23:15.231Z,77035.99
2019-01-12T10:25:41.186Z,77031.98
2019-01-12T10:28:07.378Z,77020.98
2019-01-12T10:30:33.268Z,77023.98
2019-01-12T10:33:02.428Z,77022.98
2019-01-12T10:35:28.370Z,77021.98
2019-01-12T10:37:54.317Z,77010.97
2019-01-12T10:40:20.225Z,77005.97
2019-01-12T10:42:49.170Z,77004.97
2019-01-12T10:45:19.176Z,76990.95
2019-01-12T10:47:45.071Z,76991.95
2019-01-12T10:50:12.778Z,76986.95
2019-01-12T10:52:38.690Z,76994.95
2019-01-12T10:55:04.899Z,76978.94
2019-01-12T10:57:33.650Z,76983.95
2019-01-12T11:00:04.753Z,76978.94
2019-01-12T11:02:30.650Z,76968.94
2019-01-12T11:04:56.545Z,76975.94
2019-01-12T11:07:25.172Z,76966.93
2019-01-12T11:09:51.075Z,76957.92
2019-01-12T11:12:20.183Z,76962.93
2019-01-12T11:14:49.071Z,76960.92
2019-01-12T11:17:14.980Z,76963.93
2019-01-12T11:19:40.914Z,76955.92
2019-01-12T11:22:06.931Z,76947.91
2019-01-12T11:24:32.856Z,76945.91
2019-01-12T11:26:58.757Z,76940.91
2019-01-12T11:29:24.658Z,76948.92
2019-01-12T11:31:50.596Z,76930.91
2019-01-12T11:34:19.256Z,76937.91
2019-01-12T11:36:45.151Z,76931.91
2019-01-12T11:39:11.052Z,76933.91
2019-01-12T11:41:36.990Z,76936.91
2019-01-12T11:44:02.989Z,76923.90
2019-01-12T11:46:28.931Z,76924.90
2019-01-12T11:48:54.821Z,76921.89
2019-01-12T11:51:20.721Z,76921.89
2019-01-12T11:53:46.954Z,76913.89
2019-01-12T11:56:12.897Z,76912.89
2019-01-12T11:58:38.774Z,76907.88
2019-01-12T12:01:04.720Z,76913.89
2019-01-12T12:03:30.623Z,76902.88
2019-01-12T12:05:56.539Z,76894.88
2019-01-12T12:08:22.822Z,76892.88
2019-01-12T12:10:48.725Z,76886.86
2019-01-12T12:13:14.637Z,76884.86
2019-01-12T12:15:40.535Z,76893.88
2019-01-12T12:18:06.439Z,76888.87
2019-01-12T12:20:32.372Z,76887.87
2019-01-12T12:23:01.034Z,76867.85
2019-01-12T12:25:26.940Z,76865.84
2019-01-12T12:27:58.893Z,76861.84
2019-01-12T12:30:25.792Z,76867.85
2019-01-12T12:32:51.738Z,76852.84
2019-01-12T12:35:17.642Z,76850.84
2019-01-12T12:37:46.571Z,76845.83
2019-01-12T12:40:16.678Z,76842.83
2019-01-12T12:42:42.957Z,76838.83
2019-01-12T12:45:16.304Z,76860.84
2019-01-12T12:47:44.995Z,76850.84
2019-01-12T12:50:11.810Z,76855.84
2019-01-12T12:52:37.855Z,76850.84
2019-01-12T12:55:03.948Z,76840.83
2019-01-12T12:57:32.976Z,76833.83
2019-01-12T12:59:57.664Z,76822.81
2019-01-12T13:02:26.450Z,76806.80
2019-01-12T13:04:54.381Z,76795.80
2019-01-12T13:07:20.333Z,76793.79
2019-01-12T13:09:46.602Z,76795.80
2019-01-12T13:12:12.550Z,76787.78
2019-01-12T13:14:38.489Z,76786.78
2019-01-12T13:17:07.380Z,76785.78
2019-01-12T13:19:36.356Z,76798.80
2019-01-12T13:22:02.496Z,76788.78
2019-01-12T13:24:28.467Z,76778.78
2019-01-12T13:26:57.979Z,76777.78
2019-01-12T13:29:23.898Z,76777.78
2019-01-12T13:31:49.824Z,76768.77
2019-01-12T13:34:15.729Z,76773.77
2019-01-12T13:36:44.388Z,76765.77
2019-01-12T13:39:10.278Z,76763.77
2019-01-12T13:41:36.576Z,76756.77
2019-01-12T13:44:02.513Z,76758.77
2019-01-12T13:46:28.394Z,76758.77
2019-01-12T13:48:57.085Z,76755.77
2019-01-12T13:51:26.195Z,76744.75
2019-01-12T13:53:53.447Z,76749.76
2019-01-12T13:56:19.673Z,76754.77
2019-01-12T13:58:45.651Z,76747.75
2019-01-12T14:01:14.527Z,76740.75
2019-01-12T14:03:40.439Z,76741.75
2019-01-12T14:06:06.347Z,76732.75
2019-01-12T14:08:32.280Z,76730.74
2019-01-12T14:11:00.978Z,76729.74
2019-01-12T14:13:26.857Z,76726.73
2019-01-12T14:15:55.997Z,76732.75
2019-01-12T14:18:24.909Z,76716.73
2019-01-12T14:20:54.293Z,76714.73
2019-01-12T14:23:26.002Z,76713.73
2019-01-12T14:25:51.923Z,76706.73
2019-01-12T14:28:17.830Z,76705.72
2019-01-12T14:30:43.751Z,76702.72
2019-01-12T14:33:09.645Z,76698.72
2019-01-12T14:35:35.583Z,76697.72
2019-01-12T14:38:04.420Z,76690.71
2019-01-12T14:40:30.367Z,76691.71
2019-01-12T14:42:56.264Z,76688.71
2019-01-12T14:45:29.083Z,76678.70
2019-01-12T14:47:55.343Z,76683.70
2019-01-12T14:50:21.286Z,76675.70
2019-01-12T14:52:47.206Z,76669.70
2019-01-12T14:55:17.328Z,76676.70
2019-01-12T14:57:43.274Z,76671.70
2019-01-12T15:00:14.299Z,76668.70
2019-01-12T15:02:40.196Z,76670.70
2019-01-12T15:05:07.821Z,76663.69
2019-01-12T15:07:33.713Z,76666.69
2019-01-12T15:09:59.688Z,76659.69
2019-01-12T15:12:25.594Z,76657.69
2019-01-12T15:14:53.488Z,76652.69
2019-01-12T15:17:19.394Z,76654.69
2019-01-12T15:19:48.046Z,76649.68
2019-01-12T15:22:16.387Z,76646.68
2019-01-12T15:24:42.984Z,76641.67
2019-01-12T15:27:09.091Z,76635.67
2019-01-12T15:29:35.449Z,76638.67
2019-01-12T15:32:06.562Z,76639.67
2019-01-12T15:34:32.893Z,76627.66
2019-01-12T15:37:02.637Z,76629.67
2019-01-12T15:39:28.983Z,76622.66
2019-01-12T15:41:55.027Z,76618.66
2019-01-12T15:44:20.911Z,76608.66
2019-01-12T15:46:47.127Z,76613.66
2019-01-12T15:49:13.035Z,76606.65
2019-01-12T15:51:39.383Z,76599.64
2019-01-12T15:54:05.787Z,76604.64
2019-01-12T15:56:31.801Z,76602.64
2019-01-12T15:58:57.758Z,76598.64
2019-01-12T16:01:23.656Z,76596.64
2019-01-12T16:03:49.546Z,76586.63
2019-01-12T16:06:15.568Z,76586.63
2019-01-12T16:08:41.485Z,76581.63
2019-01-12T16:11:07.375Z,76580.63
2019-01-12T16:13:33.276Z,76574.63
2019-01-12T16:15:59.540Z,76569.63
2019-01-12T16:18:26.666Z,76570.63
2019-01-12T16:20:55.541Z,76570.63
2019-01-12T16:23:21.494Z,76565.63
2019-01-12T16:25:47.395Z,76565.63
2019-01-12T16:28:23.037Z,76564.62
2019-01-12T16:30:44.217Z,76562.62
2019-01-12T16:33:10.125Z,76556.61
2019-01-12T16:35:36.021Z,76548.61
2019-01-12T16:38:01.914Z,76552.61
2019-01-12T16:40:28.212Z,76542.60
2019-01-12T16:42:54.116Z,76531.59
2019-01-12T16:45:20.075Z,76535.59
2019-01-12T16:47:46.357Z,76534.59
2019-01-12T16:50:12.266Z,76513.58
2019-01-12T16:52:38.167Z,76519.59
2019-01-12T16:55:05.565Z,76516.59
2019-01-12T16:57:31.541Z,76516.59
2019-01-12T16:59:57.836Z,76515.59
2019-01-12T17:02:23.776Z,76514.59
2019-01-12T17:04:49.836Z,76516.59
2019-01-12T17:07:15.775Z,76512.58
2019-01-12T17:09:41.691Z,76494.56
2019-01-12T17:12:07.600Z,76498.57
2019-01-12T17:14:33.810Z,76494.56
2019-01-12T17:16:59.715Z,76498.57
2019-01-12T17:19:28.900Z,76496.57
2019-01-12T17:21:57.571Z,76483.56
2019-01-12T17:24:23.473Z,76486.56
2019-01-12T17:26:54.945Z,76486.56
2019-01-12T17:29:20.897Z,76471.55
2019-01-12T17:31:47.744Z,76472.55
2019-01-12T17:34:13.733Z,76472.55
2019-01-12T17:36:39.618Z,76471.55
2019-01-12T17:39:08.133Z,76474.55
2019-01-12T17:41:37.172Z,76472.55
2019-01-12T17:44:03.175Z,76472.55
2019-01-12T17:46:29.089Z,76468.55
2019-01-12T17:48:55.133Z,76466.55
2019-01-12T17:51:21.023Z,76465.55
2019-01-12T17:53:47.324Z,76468.55
2019-01-12T17:56:13.432Z,76464.55
2019-01-12T17:58:44.345Z,76463.55
2019-01-12T18:01:10.113Z,76465.55
2019-01-12T18:03:35.991Z,76469.55
2019-01-12T18:06:01.936Z,76470.55
2019-01-12T18:08:27.849Z,76466.55
2019-01-12T18:10:53.736Z,76463.55
2019-01-12T18:13:19.966Z,76461.55
2019-01-12T18:15:45.883Z,76456.55
2019-01-12T18:18:11.821Z,76458.55
2019-01-12T18:20:37.719Z,76465.55
2019-01-12T18:23:03.816Z,76465.55
2019-01-12T18:25:29.724Z,76466.55
2019-01-12T18:27:55.620Z,76458.55
2019-01-12T18:30:23.030Z,76462.55
2019-01-12T18:32:48.926Z,76459.55
2019-01-12T18:35:14.856Z,76457.55
2019-01-12T18:37:40.755Z,76453.54
2019-01-12T18:40:08.308Z,76451.54
2019-01-12T18:42:34.518Z,76449.54
2019-01-12T18:45:00.424Z,76454.55
2019-01-12T18:47:26.323Z,76454.55
2019-01-12T18:49:55.262Z,76451.54
2019-01-12T18:52:21.163Z,76454.55
2019-01-12T18:54:47.125Z,76448.54
2019-01-12T18:57:13.058Z,76440.53
2019-01-12T18:59:39.187Z,76439.53
2019-01-12T19:02:08.167Z,76440.53
2019-01-12T19:04:34.517Z,76438.53
2019-01-12T19:07:00.422Z,76436.53
2019-01-12T19:09:26.371Z,76435.53
2019-01-12T19:11:56.437Z,76434.53
2019-01-12T19:14:22.835Z,76440.53
2019-01-12T19:16:48.737Z,76436.53
2019-01-12T19:19:14.691Z,76432.53
2019-01-12T19:21:40.641Z,76436.53
2019-01-12T19:24:06.570Z,76430.53
2019-01-12T19:26:32.479Z,76434.53
2019-01-12T19:28:58.533Z,76428.52
2019-01-12T19:31:24.514Z,76429.52
2019-01-12T19:33:50.520Z,76422.52
2019-01-12T19:36:16.475Z,76420.52
2019-01-12T19:38:42.396Z,76418.52
2019-01-12T19:41:11.761Z,76414.52
2019-01-12T19:43:37.668Z,76418.52
2019-01-12T19:46:03.599Z,76425.52
2019-01-12T19:48:29.487Z,76419.52
2019-01-12T19:50:55.866Z,76410.52
2019-01-12T19:53:21.781Z,76410.52
2019-01-12T19:55:47.867Z,76404.51
2019-01-12T19:58:15.906Z,76406.51
2019-01-12T20:00:42.782Z,76402.50
2019-01-12T20:03:09.142Z,76402.50
2019-01-12T20:05:35.741Z,76401.50
2019-01-12T20:08:02.110Z,76397.50
2019-01-12T20:10:28.205Z,76394.50
2019-01-12T20:12:54.123Z,76397.50
2019-01-12T20:15:21.515Z,76395.50
2019-01-12T20:17:48.720Z,76394.50
2019-01-12T20:20:14.912Z,76391.50
2019-01-12T20:22:41.101Z,76396.50
2019-01-12T20:25:11.338Z,76402.50
2019-01-12T20:27:37.244Z,76387.50
2019-01-12T20:30:05.222Z,76382.49
2019-01-12T20:32:38.834Z,76395.50
2019-01-12T20:35:09.563Z,76388.50
2019-01-12T20:37:43.797Z,76389.50
2019-01-12T20:40:12.012Z,76384.49
2019-01-12T20:42:42.844Z,76381.49
2019-01-12T20:45:28.805Z,76381.49
2019-01-12T20:48:09.067Z,76379.48
2019-01-12T20:50:35.691Z,76376.48
2019-01-12T20:53:12.588Z,76377.48
2019-01-12T20:55:40.410Z,76382.49
2019-01-12T20:58:11.055Z,76373.48
2019-01-12T21:00:55.496Z,76368.48
2019-01-12T21:03:26.105Z,76368.48
2019-01-12T21:05:53.921Z,76359.48
2019-01-12T21:08:28.109Z,76354.47
2019-01-12T21:11:14.474Z,76358.48
2019-01-12T21:13:42.315Z,76358.48
2019-01-12T21:16:10.564Z,76362.48
2019-01-12T21:18:36.545Z,76355.48
2019-01-12T21:21:02.530Z,76361.48
2019-01-12T21:23:28.470Z,76359.48
2019-01-12T21:25:57.418Z,76356.48
2019-01-12T21:28:23.358Z,76361.48
2019-01-12T21:30:52.341Z,76359.48
2019-01-12T21:33:21.655Z,76354.47
2019-01-12T21:35:47.580Z,76356.48
2019-01-12T21:38:13.513Z,76361.48
2019-01-12T21:40:42.325Z,76359.48
2019-01-12T21:43:08.260Z,76358.48
2019-01-12T21:45:37.768Z,76367.48
2019-01-12T21:48:03.678Z,76360.48
2019-01-12T21:50:29.607Z,76355.48
2019-01-12T21:52:55.894Z,76349.47
2019-01-12T21:55:22.355Z,76351.47
2019-01-12T21:57:51.493Z,76354.47
2019-01-12T22:00:17.443Z,76350.47
2019-01-12T22:02:46.417Z,76346.47
2019-01-12T22:05:15.365Z,76335.46
2019-01-12T22:07:44.384Z,76340.47
2019-01-12T22:10:19.094Z,76342.47
2019-01-12T22:12:42.176Z,76338.47
2019-01-12T22:15:09.490Z,76336.46
2019-01-12T22:17:35.446Z,76339.47
2019-01-12T22:20:06.064Z,76344.47
2019-01-12T22:22:31.993Z,76340.47
2019-01-12T22:24:57.925Z,76337.47
2019-01-12T22:27:23.837Z,76336.46
2019-01-12T22:29:50.212Z,76332.46
2019-01-12T22:32:19.281Z,76340.47
2019-01-12T22:34:45.223Z,76335.46
2019-01-12T22:37:11.114Z,76339.47
2019-01-12T22:39:37.047Z,76340.47
2019-01-12T22:42:02.982Z,76333.46
2019-01-12T22:44:32.332Z,76339.47
2019-01-12T22:46:58.245Z,76339.47
2019-01-12T22:49:24.159Z,76338.47
2019-01-12T22:51:50.060Z,76338.47
2019-01-12T22:54:15.963Z,76334.46
2019-01-12T22:56:44.766Z,76336.46
2019-01-12T22:59:10.667Z,76333.46
2019-01-12T23:01:38.803Z,76332.46
2019-01-12T23:04:05.340Z,76328.45
2019-01-12T23:06:31.238Z,76331.46
2019-01-12T23:09:00.055Z,76326.45
2019-01-12T23:11:29.311Z,76327.45
2019-01-12T23:13:55.213Z,76332.46
2019-01-12T23:16:21.130Z,76322.45
2019-01-12T23:18:47.064Z,76326.45
2019-01-12T23:21:12.985Z,76326.45
2019-01-12T23:23:38.930Z,76326.45
2019-01-12T23:26:07.726Z,76332.46
2019-01-12T23:28:34.002Z,76324.45
2019-01-12T23:31:00.254Z,76329.45
2019-01-12T23:33:26.142Z,76322.45
2019-01-12T23:35:53.285Z,76323.45
2019-01-12T23:38:19.142Z,76322.45
2019-01-12T23:40:45.112Z,76318.45
2019-01-12T23:43:11.019Z,76317.45
2019-01-12T23:45:36.915Z,76322.45
2019-01-12T23:48:02.827Z,76319.45
2019-01-12T23:50:28.724Z,76313.45
2019-01-12T23:52:57.836Z,76316.45
2019-01-12T23:55:23.752Z,76314.45
2019-01-12T23:57:55.793Z,76314.45
